N732AP BIKF-EGAC
Flight info
| Callsign | N732AP |
|---|---|
| Flight time | N/A |
| Altitude | 29000 |
| Route | PIXUM2D PIXUM DCT PETUX DCT PODAR DCT ETILO/N0278F290 DCT EVNAL DCT BEL |
| Aircraft | SF50/L-SDGRWY/L |
Departure
| Time | N/A |
|---|---|
| Airport | Keflavik International Airport (BIKF) |
Arrival
| Time | 2026-05-03 21:57 |
|---|---|
| Airport | George Best Belfast City Airport (EGAC) |
| Time | Latitude | Longitude | Altitude | Speed | Heading |
|---|---|---|---|---|---|
| 2026-05-03 20:15 | 61.01173 | -14.27984 | 28909 ft | 350 kts | 152° |
| 2026-05-03 20:15 | 60.97148 | -14.22441 | 28913 ft | 349 kts | 151° |
| 2026-05-03 20:16 | 60.93148 | -14.16944 | 28916 ft | 348 kts | 151° |
| 2026-05-03 20:16 | 60.89117 | -14.11416 | 28903 ft | 349 kts | 151° |
| 2026-05-03 20:17 | 60.85117 | -14.05955 | 28903 ft | 347 kts | 151° |
| 2026-05-03 20:17 | 60.81116 | -14.00507 | 28913 ft | 345 kts | 151° |
| 2026-05-03 20:18 | 60.77139 | -13.95111 | 28914 ft | 344 kts | 151° |
| 2026-05-03 20:18 | 60.73154 | -13.89714 | 28912 ft | 344 kts | 151° |
| 2026-05-03 20:19 | 60.69177 | -13.84361 | 28916 ft | 343 kts | 151° |
| 2026-05-03 20:19 | 60.65232 | -13.79048 | 28926 ft | 343 kts | 151° |
| 2026-05-03 20:20 | 60.61254 | -13.73724 | 28917 ft | 343 kts | 151° |
| 2026-05-03 20:20 | 60.57289 | -13.68409 | 28914 ft | 343 kts | 151° |
| 2026-05-03 20:21 | 60.53302 | -13.63110 | 28924 ft | 343 kts | 151° |
| 2026-05-03 20:21 | 60.49336 | -13.57827 | 28926 ft | 342 kts | 150° |
| 2026-05-03 20:22 | 60.45372 | -13.52578 | 28924 ft | 342 kts | 150° |
| 2026-05-03 20:22 | 60.41400 | -13.47335 | 28935 ft | 342 kts | 150° |
| 2026-05-03 20:23 | 60.37427 | -13.42091 | 28928 ft | 342 kts | 150° |
| 2026-05-03 20:23 | 60.33463 | -13.36884 | 28931 ft | 342 kts | 150° |
| 2026-05-03 20:24 | 60.29474 | -13.31660 | 28929 ft | 341 kts | 152° |
| 2026-05-03 20:24 | 60.25512 | -13.26501 | 28929 ft | 341 kts | 151° |
| 2026-05-03 20:25 | 60.21561 | -13.21348 | 28936 ft | 340 kts | 151° |
| 2026-05-03 20:25 | 60.17598 | -13.16209 | 28943 ft | 340 kts | 151° |
| 2026-05-03 20:26 | 60.13638 | -13.11085 | 28937 ft | 340 kts | 152° |
| 2026-05-03 20:26 | 60.09678 | -13.05976 | 28943 ft | 339 kts | 151° |
| 2026-05-03 20:27 | 60.05734 | -13.00889 | 28947 ft | 339 kts | 152° |
| 2026-05-03 20:27 | 60.01786 | -12.95824 | 28943 ft | 339 kts | 151° |
| 2026-05-03 20:28 | 59.97822 | -12.90757 | 28952 ft | 339 kts | 151° |
| 2026-05-03 20:28 | 59.93863 | -12.85710 | 28954 ft | 339 kts | 151° |
| 2026-05-03 20:29 | 59.89920 | -12.80691 | 28957 ft | 338 kts | 151° |
| 2026-05-03 20:29 | 59.85969 | -12.75681 | 28950 ft | 337 kts | 150° |
| 2026-05-03 20:30 | 59.82025 | -12.70692 | 28949 ft | 336 kts | 150° |
| 2026-05-03 20:30 | 59.78109 | -12.65754 | 28951 ft | 335 kts | 151° |
| 2026-05-03 20:31 | 59.74189 | -12.60822 | 28954 ft | 335 kts | 151° |
| 2026-05-03 20:31 | 59.70264 | -12.55909 | 28962 ft | 334 kts | 150° |
| 2026-05-03 20:32 | 59.66359 | -12.51020 | 28974 ft | 333 kts | 150° |
| 2026-05-03 20:32 | 59.62466 | -12.46161 | 28971 ft | 334 kts | 150° |
| 2026-05-03 20:33 | 59.58548 | -12.41294 | 28971 ft | 334 kts | 150° |
| 2026-05-03 20:33 | 59.54630 | -12.36442 | 28977 ft | 333 kts | 150° |
| 2026-05-03 20:34 | 59.50731 | -12.31617 | 28973 ft | 333 kts | 151° |
| 2026-05-03 20:34 | 59.46818 | -12.26788 | 28982 ft | 332 kts | 150° |
| 2026-05-03 20:35 | 59.42935 | -12.22009 | 28975 ft | 332 kts | 151° |
| 2026-05-03 20:35 | 59.39016 | -12.17207 | 28982 ft | 331 kts | 150° |
| 2026-05-03 20:36 | 59.35155 | -12.12482 | 28985 ft | 331 kts | 151° |
| 2026-05-03 20:36 | 59.31250 | -12.07722 | 28983 ft | 331 kts | 150° |
| 2026-05-03 20:37 | 59.27367 | -12.02992 | 28987 ft | 330 kts | 151° |
| 2026-05-03 20:37 | 59.23472 | -11.98272 | 28981 ft | 331 kts | 150° |
| 2026-05-03 20:38 | 59.19581 | -11.93565 | 28983 ft | 331 kts | 150° |
| 2026-05-03 20:38 | 59.15679 | -11.88861 | 28993 ft | 331 kts | 150° |
| 2026-05-03 20:39 | 59.11781 | -11.84161 | 29000 ft | 330 kts | 150° |
| 2026-05-03 20:39 | 59.07900 | -11.79511 | 29002 ft | 330 kts | 150° |
| 2026-05-03 20:40 | 59.04016 | -11.74860 | 29011 ft | 329 kts | 150° |
| 2026-05-03 20:40 | 59.00119 | -11.70203 | 29004 ft | 329 kts | 149° |
| 2026-05-03 20:41 | 58.96222 | -11.65566 | 29004 ft | 329 kts | 150° |
| 2026-05-03 20:41 | 58.92336 | -11.60952 | 29004 ft | 329 kts | 150° |
| 2026-05-03 20:42 | 58.88466 | -11.56370 | 28997 ft | 329 kts | 149° |
| 2026-05-03 20:42 | 58.84590 | -11.51788 | 28995 ft | 328 kts | 150° |
| 2026-05-03 20:43 | 58.80718 | -11.47232 | 28996 ft | 327 kts | 149° |
| 2026-05-03 20:43 | 58.76837 | -11.42676 | 29002 ft | 326 kts | 149° |
| 2026-05-03 20:44 | 58.72990 | -11.38165 | 28996 ft | 325 kts | 149° |
| 2026-05-03 20:44 | 58.69132 | -11.33661 | 29005 ft | 324 kts | 150° |
| 2026-05-03 20:45 | 58.65306 | -11.29195 | 29005 ft | 323 kts | 150° |
| 2026-05-03 20:45 | 58.61485 | -11.24756 | 29002 ft | 323 kts | 150° |
| 2026-05-03 20:46 | 58.57643 | -11.20303 | 29006 ft | 323 kts | 150° |
| 2026-05-03 20:46 | 58.53829 | -11.15898 | 29018 ft | 322 kts | 150° |
| 2026-05-03 20:47 | 58.49999 | -11.11473 | 29009 ft | 322 kts | 150° |
| 2026-05-03 20:47 | 58.46187 | -11.07090 | 29013 ft | 322 kts | 150° |
| 2026-05-03 20:48 | 58.42347 | -11.02681 | 29021 ft | 322 kts | 150° |
| 2026-05-03 20:48 | 58.38515 | -10.98296 | 29028 ft | 322 kts | 150° |
| 2026-05-03 20:49 | 58.34701 | -10.93942 | 29031 ft | 322 kts | 150° |
| 2026-05-03 20:49 | 58.30897 | -10.89610 | 29036 ft | 321 kts | 149° |
| 2026-05-03 20:50 | 58.27056 | -10.85247 | 29036 ft | 321 kts | 149° |
| 2026-05-03 20:50 | 58.23262 | -10.80946 | 29043 ft | 321 kts | 149° |
| 2026-05-03 20:51 | 58.19433 | -10.76624 | 29034 ft | 321 kts | 149° |
| 2026-05-03 20:51 | 58.15594 | -10.72291 | 29043 ft | 321 kts | 149° |
| 2026-05-03 20:52 | 58.11776 | -10.67997 | 29041 ft | 322 kts | 149° |
| 2026-05-03 20:52 | 58.07944 | -10.63708 | 29041 ft | 321 kts | 149° |
| 2026-05-03 20:53 | 58.04133 | -10.59436 | 29046 ft | 321 kts | 149° |
| 2026-05-03 20:53 | 58.00290 | -10.55151 | 29042 ft | 321 kts | 149° |
| 2026-05-03 20:54 | 57.97106 | -10.51601 | 29038 ft | 321 kts | 149° |
| 2026-05-03 20:54 | 57.90731 | -10.44532 | 29039 ft | 320 kts | 149° |
| 2026-05-03 20:55 | 57.86886 | -10.40275 | 29032 ft | 319 kts | 149° |
| 2026-05-03 20:55 | 57.83085 | -10.36080 | 29027 ft | 319 kts | 149° |
| 2026-05-03 20:56 | 57.79282 | -10.31901 | 29033 ft | 317 kts | 149° |
| 2026-05-03 20:56 | 57.75508 | -10.27750 | 29033 ft | 316 kts | 149° |
| 2026-05-03 20:57 | 57.71714 | -10.23591 | 29032 ft | 316 kts | 149° |
| 2026-05-03 20:57 | 57.67940 | -10.19476 | 29038 ft | 315 kts | 149° |
| 2026-05-03 20:58 | 57.64187 | -10.15385 | 29042 ft | 314 kts | 149° |
| 2026-05-03 20:58 | 57.60428 | -10.11292 | 29046 ft | 314 kts | 149° |
| 2026-05-03 20:59 | 57.56676 | -10.07225 | 29046 ft | 313 kts | 148° |
| 2026-05-03 20:59 | 57.52906 | -10.03145 | 29045 ft | 313 kts | 148° |
| 2026-05-03 21:00 | 57.50496 | -10.00265 | 29031 ft | 309 kts | 129° |
| 2026-05-03 21:00 | 57.49016 | -9.94519 | 29055 ft | 294 kts | 101° |
| 2026-05-03 21:00 | 57.48362 | -9.90939 | 29047 ft | 294 kts | 101° |
| 2026-05-03 21:01 | 57.47716 | -9.87385 | 29050 ft | 294 kts | 101° |
| 2026-05-03 21:01 | 57.47059 | -9.83779 | 29047 ft | 295 kts | 101° |
| 2026-05-03 21:01 | 57.46402 | -9.80183 | 29048 ft | 295 kts | 101° |
| 2026-05-03 21:01 | 57.45751 | -9.76618 | 29049 ft | 295 kts | 101° |
| 2026-05-03 21:02 | 57.45094 | -9.73026 | 29048 ft | 295 kts | 101° |
| 2026-05-03 21:02 | 57.44426 | -9.69389 | 29050 ft | 295 kts | 101° |
| 2026-05-03 21:02 | 57.43773 | -9.65827 | 29053 ft | 295 kts | 101° |
| 2026-05-03 21:02 | 57.43108 | -9.62213 | 29062 ft | 295 kts | 101° |
| 2026-05-03 21:03 | 57.42453 | -9.58650 | 29063 ft | 295 kts | 101° |
| 2026-05-03 21:03 | 57.41784 | -9.55051 | 29069 ft | 295 kts | 101° |
| 2026-05-03 21:03 | 57.39645 | -9.48585 | 29085 ft | 310 kts | 140° |
| 2026-05-03 21:04 | 57.36169 | -9.43949 | 29072 ft | 311 kts | 142° |
| 2026-05-03 21:04 | 57.32643 | -9.39369 | 29069 ft | 312 kts | 142° |
| 2026-05-03 21:05 | 57.29089 | -9.34785 | 29072 ft | 311 kts | 143° |
| 2026-05-03 21:05 | 57.25559 | -9.30233 | 29068 ft | 311 kts | 143° |
| 2026-05-03 21:06 | 57.22023 | -9.25694 | 29071 ft | 311 kts | 143° |
| 2026-05-03 21:06 | 57.18465 | -9.21138 | 29070 ft | 311 kts | 143° |
| 2026-05-03 21:07 | 57.14944 | -9.16634 | 29068 ft | 310 kts | 143° |
| 2026-05-03 21:07 | 57.11410 | -9.12124 | 29070 ft | 310 kts | 143° |
| 2026-05-03 21:08 | 57.07866 | -9.07620 | 29073 ft | 309 kts | 142° |
| 2026-05-03 21:08 | 57.04354 | -9.03165 | 29073 ft | 309 kts | 142° |
| 2026-05-03 21:09 | 57.00820 | -8.98688 | 29078 ft | 309 kts | 142° |
| 2026-05-03 21:09 | 56.97304 | -8.94244 | 29075 ft | 309 kts | 142° |
| 2026-05-03 21:10 | 56.93767 | -8.89782 | 29074 ft | 309 kts | 142° |
| 2026-05-03 21:10 | 56.90243 | -8.85355 | 29074 ft | 309 kts | 142° |
| 2026-05-03 21:11 | 56.86714 | -8.80925 | 29066 ft | 308 kts | 142° |
| 2026-05-03 21:11 | 56.83197 | -8.76522 | 29062 ft | 307 kts | 142° |
| 2026-05-03 21:12 | 56.79693 | -8.72146 | 29061 ft | 306 kts | 142° |
| 2026-05-03 21:12 | 56.76202 | -8.67797 | 29062 ft | 305 kts | 142° |
| 2026-05-03 21:13 | 56.72690 | -8.63432 | 29060 ft | 305 kts | 142° |
| 2026-05-03 21:13 | 56.69204 | -8.59106 | 29062 ft | 304 kts | 142° |
| 2026-05-03 21:14 | 56.65734 | -8.54811 | 29062 ft | 304 kts | 141° |
| 2026-05-03 21:14 | 56.62244 | -8.50503 | 29065 ft | 304 kts | 141° |
| 2026-05-03 21:15 | 56.58750 | -8.46203 | 29063 ft | 304 kts | 141° |
| 2026-05-03 21:15 | 56.55264 | -8.41920 | 29065 ft | 303 kts | 141° |
| 2026-05-03 21:16 | 56.51792 | -8.37662 | 29061 ft | 303 kts | 141° |
| 2026-05-03 21:16 | 56.48318 | -8.33406 | 29059 ft | 303 kts | 142° |
| 2026-05-03 21:17 | 56.45422 | -8.29866 | 29062 ft | 303 kts | 142° |
| 2026-05-03 21:17 | 56.41352 | -8.24917 | 29066 ft | 302 kts | 142° |
| 2026-05-03 21:18 | 56.37891 | -8.20711 | 29067 ft | 302 kts | 141° |
| 2026-05-03 21:18 | 56.34415 | -8.16492 | 29069 ft | 302 kts | 142° |
| 2026-05-03 21:19 | 56.30929 | -8.12278 | 29069 ft | 301 kts | 142° |
| 2026-05-03 21:19 | 56.27462 | -8.08090 | 29071 ft | 301 kts | 142° |
| 2026-05-03 21:20 | 56.24014 | -8.03936 | 29073 ft | 301 kts | 142° |
| 2026-05-03 21:20 | 56.20535 | -7.99753 | 29070 ft | 301 kts | 142° |
| 2026-05-03 21:21 | 56.17053 | -7.95580 | 29071 ft | 301 kts | 142° |
| 2026-05-03 21:21 | 56.15323 | -7.93510 | 29072 ft | 300 kts | 142° |
| 2026-05-03 21:21 | 56.13593 | -7.91444 | 29069 ft | 300 kts | 141° |
| 2026-05-03 21:22 | 56.11864 | -7.89376 | 29076 ft | 300 kts | 142° |
| 2026-05-03 21:22 | 56.10149 | -7.87328 | 29068 ft | 300 kts | 142° |
| 2026-05-03 21:22 | 56.08401 | -7.85243 | 29072 ft | 300 kts | 142° |
| 2026-05-03 21:22 | 56.06683 | -7.83206 | 29065 ft | 300 kts | 141° |
| 2026-05-03 21:23 | 56.04940 | -7.81130 | 29070 ft | 299 kts | 141° |
| 2026-05-03 21:23 | 56.03228 | -7.79096 | 29071 ft | 299 kts | 141° |
| 2026-05-03 21:23 | 56.01508 | -7.77051 | 29069 ft | 299 kts | 141° |
| 2026-05-03 21:23 | 55.99764 | -7.74985 | 29067 ft | 299 kts | 141° |
| 2026-05-03 21:24 | 55.98053 | -7.72959 | 29069 ft | 299 kts | 141° |
| 2026-05-03 21:24 | 55.96318 | -7.70907 | 29059 ft | 299 kts | 141° |
| 2026-05-03 21:24 | 55.94594 | -7.68869 | 29066 ft | 298 kts | 141° |
| 2026-05-03 21:24 | 55.92876 | -7.66843 | 29064 ft | 298 kts | 141° |
| 2026-05-03 21:25 | 55.91158 | -7.64815 | 29060 ft | 298 kts | 141° |
| 2026-05-03 21:25 | 55.89415 | -7.62766 | 29054 ft | 298 kts | 141° |
| 2026-05-03 21:25 | 55.87714 | -7.60764 | 29049 ft | 297 kts | 141° |
| 2026-05-03 21:25 | 55.85986 | -7.58733 | 29045 ft | 296 kts | 141° |
| 2026-05-03 21:26 | 55.84264 | -7.56713 | 29046 ft | 296 kts | 141° |
| 2026-05-03 21:26 | 55.82541 | -7.54725 | 29041 ft | 298 kts | 146° |
| 2026-05-03 21:26 | 55.80511 | -7.53899 | 28958 ft | 307 kts | 175° |
| 2026-05-03 21:26 | 55.78392 | -7.53724 | 28875 ft | 309 kts | 176° |
| 2026-05-03 21:27 | 55.74062 | -7.53400 | 28685 ft | 313 kts | 175° |
| 2026-05-03 21:27 | 55.71992 | -7.52509 | 28514 ft | 308 kts | 145° |
| 2026-05-03 21:27 | 55.70510 | -7.49952 | 28278 ft | 298 kts | 113° |
| 2026-05-03 21:28 | 55.69566 | -7.46706 | 28013 ft | 300 kts | 109° |
| 2026-05-03 21:28 | 55.68633 | -7.43397 | 27708 ft | 305 kts | 109° |
| 2026-05-03 21:28 | 55.67621 | -7.40058 | 27374 ft | 309 kts | 118° |
| 2026-05-03 21:28 | 55.66199 | -7.37246 | 27038 ft | 308 kts | 131° |
| 2026-05-03 21:29 | 55.64582 | -7.34857 | 26700 ft | 304 kts | 138° |
| 2026-05-03 21:29 | 55.62886 | -7.32662 | 26351 ft | 300 kts | 140° |
| 2026-05-03 21:29 | 55.61186 | -7.30584 | 26000 ft | 296 kts | 142° |
| 2026-05-03 21:29 | 55.59496 | -7.28581 | 25660 ft | 293 kts | 142° |
| 2026-05-03 21:30 | 55.57802 | -7.26589 | 25308 ft | 290 kts | 142° |
| 2026-05-03 21:30 | 55.56132 | -7.24644 | 24964 ft | 288 kts | 142° |
| 2026-05-03 21:30 | 55.54488 | -7.22733 | 24622 ft | 286 kts | 142° |
| 2026-05-03 21:30 | 55.52828 | -7.20809 | 24275 ft | 283 kts | 143° |
| 2026-05-03 21:31 | 55.51210 | -7.18934 | 23933 ft | 282 kts | 143° |
| 2026-05-03 21:31 | 55.49577 | -7.17048 | 23594 ft | 280 kts | 143° |
| 2026-05-03 21:31 | 55.47952 | -7.15170 | 23254 ft | 278 kts | 143° |
| 2026-05-03 21:31 | 55.46343 | -7.13315 | 22917 ft | 277 kts | 143° |
| 2026-05-03 21:32 | 55.44737 | -7.11463 | 22576 ft | 276 kts | 143° |
| 2026-05-03 21:32 | 55.43142 | -7.09622 | 22237 ft | 275 kts | 143° |
| 2026-05-03 21:32 | 55.41557 | -7.07798 | 21903 ft | 273 kts | 143° |
| 2026-05-03 21:32 | 55.39971 | -7.05974 | 21564 ft | 272 kts | 143° |
| 2026-05-03 21:33 | 55.38402 | -7.04173 | 21230 ft | 271 kts | 143° |
| 2026-05-03 21:33 | 55.36826 | -7.02364 | 20896 ft | 270 kts | 143° |
| 2026-05-03 21:33 | 55.35282 | -7.00594 | 20568 ft | 268 kts | 144° |
| 2026-05-03 21:33 | 55.33566 | -6.99263 | 20229 ft | 272 kts | 168° |
| 2026-05-03 21:34 | 55.31708 | -6.99258 | 19917 ft | 270 kts | 181° |
| 2026-05-03 21:34 | 55.29985 | -6.98219 | 19609 ft | 262 kts | 138° |
| 2026-05-03 21:34 | 55.28948 | -6.95748 | 19339 ft | 253 kts | 116° |
| 2026-05-03 21:34 | 55.27840 | -6.93311 | 19035 ft | 256 kts | 131° |
| 2026-05-03 21:35 | 55.26536 | -6.91221 | 18729 ft | 257 kts | 137° |
| 2026-05-03 21:35 | 55.25128 | -6.89309 | 18416 ft | 257 kts | 141° |
| 2026-05-03 21:35 | 55.23666 | -6.87488 | 18107 ft | 257 kts | 143° |
| 2026-05-03 21:35 | 55.22198 | -6.85744 | 17796 ft | 257 kts | 144° |
| 2026-05-03 21:36 | 55.20708 | -6.84012 | 17484 ft | 256 kts | 144° |
| 2026-05-03 21:36 | 55.19223 | -6.82309 | 17165 ft | 256 kts | 144° |
| 2026-05-03 21:36 | 55.17736 | -6.80788 | 17097 ft | 247 kts | 148° |
| 2026-05-03 21:36 | 55.16251 | -6.79330 | 16929 ft | 243 kts | 148° |
| 2026-05-03 21:37 | 55.14772 | -6.77891 | 16725 ft | 242 kts | 149° |
| 2026-05-03 21:37 | 55.13319 | -6.76486 | 16493 ft | 243 kts | 149° |
| 2026-05-03 21:37 | 55.11843 | -6.75066 | 16238 ft | 244 kts | 149° |
| 2026-05-03 21:37 | 55.10353 | -6.73636 | 15959 ft | 246 kts | 149° |
| 2026-05-03 21:38 | 55.08849 | -6.72196 | 15664 ft | 247 kts | 149° |
| 2026-05-03 21:38 | 55.07349 | -6.70756 | 15362 ft | 248 kts | 149° |
| 2026-05-03 21:38 | 55.05835 | -6.69309 | 15061 ft | 250 kts | 149° |
| 2026-05-03 21:38 | 55.04298 | -6.67837 | 14748 ft | 250 kts | 149° |
| 2026-05-03 21:39 | 55.02791 | -6.66399 | 14436 ft | 251 kts | 149° |
| 2026-05-03 21:39 | 55.01261 | -6.64939 | 14120 ft | 251 kts | 149° |
| 2026-05-03 21:39 | 54.99740 | -6.63490 | 13808 ft | 250 kts | 149° |
| 2026-05-03 21:39 | 54.98219 | -6.62044 | 13494 ft | 250 kts | 149° |
| 2026-05-03 21:40 | 54.96702 | -6.60601 | 13190 ft | 249 kts | 149° |
| 2026-05-03 21:40 | 54.95169 | -6.59144 | 12877 ft | 249 kts | 149° |
| 2026-05-03 21:40 | 54.93672 | -6.57731 | 12578 ft | 248 kts | 149° |
| 2026-05-03 21:40 | 54.92165 | -6.56296 | 12271 ft | 248 kts | 149° |
| 2026-05-03 21:41 | 54.90645 | -6.54851 | 11961 ft | 247 kts | 149° |
| 2026-05-03 21:41 | 54.89157 | -6.53437 | 11662 ft | 246 kts | 149° |
| 2026-05-03 21:41 | 54.87655 | -6.52015 | 11359 ft | 245 kts | 149° |
| 2026-05-03 21:41 | 54.86172 | -6.50614 | 11063 ft | 245 kts | 149° |
| 2026-05-03 21:42 | 54.84683 | -6.49204 | 10764 ft | 245 kts | 149° |
| 2026-05-03 21:42 | 54.83186 | -6.47792 | 10464 ft | 245 kts | 149° |
| 2026-05-03 21:42 | 54.81685 | -6.46376 | 10158 ft | 244 kts | 149° |
| 2026-05-03 21:42 | 54.80210 | -6.44986 | 9861 ft | 243 kts | 149° |
| 2026-05-03 21:43 | 54.78730 | -6.43590 | 9555 ft | 242 kts | 149° |
| 2026-05-03 21:43 | 54.77259 | -6.42206 | 9265 ft | 237 kts | 149° |
| 2026-05-03 21:43 | 54.75832 | -6.40865 | 8989 ft | 229 kts | 149° |
| 2026-05-03 21:43 | 54.74463 | -6.39580 | 8744 ft | 223 kts | 149° |
| 2026-05-03 21:44 | 54.73122 | -6.38321 | 8498 ft | 218 kts | 149° |
| 2026-05-03 21:44 | 54.71806 | -6.37087 | 8259 ft | 212 kts | 149° |
| 2026-05-03 21:44 | 54.70520 | -6.35881 | 8015 ft | 208 kts | 149° |
| 2026-05-03 21:44 | 54.69269 | -6.34709 | 7784 ft | 204 kts | 149° |
| 2026-05-03 21:45 | 54.68032 | -6.33551 | 7558 ft | 202 kts | 149° |
| 2026-05-03 21:45 | 54.66802 | -6.32400 | 7314 ft | 200 kts | 149° |
| 2026-05-03 21:45 | 54.65573 | -6.31250 | 7078 ft | 199 kts | 149° |
| 2026-05-03 21:45 | 54.64377 | -6.30133 | 6847 ft | 198 kts | 149° |
| 2026-05-03 21:46 | 54.63168 | -6.29005 | 6609 ft | 197 kts | 149° |
| 2026-05-03 21:46 | 54.61957 | -6.27882 | 6370 ft | 196 kts | 149° |
| 2026-05-03 21:46 | 54.60759 | -6.26761 | 6124 ft | 196 kts | 149° |
| 2026-05-03 21:46 | 54.59569 | -6.25652 | 5886 ft | 196 kts | 149° |
| 2026-05-03 21:47 | 54.58376 | -6.24540 | 5643 ft | 196 kts | 149° |
| 2026-05-03 21:47 | 54.57167 | -6.23416 | 5397 ft | 196 kts | 149° |
| 2026-05-03 21:47 | 54.55982 | -6.22315 | 5156 ft | 196 kts | 148° |
| 2026-05-03 21:47 | 54.54785 | -6.21202 | 4915 ft | 195 kts | 148° |
| 2026-05-03 21:48 | 54.53595 | -6.20097 | 4676 ft | 195 kts | 148° |
| 2026-05-03 21:48 | 54.52401 | -6.18989 | 4436 ft | 195 kts | 148° |
| 2026-05-03 21:48 | 54.51202 | -6.17876 | 4195 ft | 195 kts | 148° |
| 2026-05-03 21:48 | 54.50017 | -6.16779 | 3954 ft | 195 kts | 148° |
| 2026-05-03 21:49 | 54.48822 | -6.15671 | 3713 ft | 195 kts | 148° |
| 2026-05-03 21:49 | 54.47632 | -6.14569 | 3470 ft | 195 kts | 148° |
| 2026-05-03 21:49 | 54.46437 | -6.13467 | 3228 ft | 194 kts | 148° |
| 2026-05-03 21:49 | 54.45267 | -6.12381 | 3032 ft | 187 kts | 146° |
| 2026-05-03 21:50 | 54.44537 | -6.10792 | 2991 ft | 159 kts | 98° |
| 2026-05-03 21:50 | 54.44622 | -6.09081 | 2982 ft | 138 kts | 60° |
| 2026-05-03 21:50 | 54.45180 | -6.07835 | 2991 ft | 128 kts | 46° |
| 2026-05-03 21:50 | 54.45793 | -6.06775 | 2984 ft | 124 kts | 41° |
| 2026-05-03 21:51 | 54.46431 | -6.05815 | 2967 ft | 121 kts | 39° |
| 2026-05-03 21:51 | 54.47082 | -6.04920 | 2944 ft | 120 kts | 37° |
| 2026-05-03 21:51 | 54.47749 | -6.04053 | 2913 ft | 119 kts | 36° |
| 2026-05-03 21:51 | 54.48414 | -6.03223 | 2884 ft | 118 kts | 34° |
| 2026-05-03 21:52 | 54.49087 | -6.02399 | 2854 ft | 118 kts | 34° |
| 2026-05-03 21:52 | 54.49768 | -6.01579 | 2749 ft | 123 kts | 34° |
| 2026-05-03 21:52 | 54.50498 | -6.00708 | 2603 ft | 130 kts | 34° |
| 2026-05-03 21:52 | 54.51259 | -5.99802 | 2441 ft | 136 kts | 33° |
| 2026-05-03 21:53 | 54.52049 | -5.98862 | 2260 ft | 139 kts | 34° |
| 2026-05-03 21:53 | 54.52795 | -5.97978 | 2153 ft | 129 kts | 33° |
| 2026-05-03 21:53 | 54.53542 | -5.97091 | 1952 ft | 132 kts | 34° |
| 2026-05-03 21:53 | 54.54273 | -5.96223 | 1749 ft | 125 kts | 33° |
| 2026-05-03 21:54 | 54.54968 | -5.95399 | 1564 ft | 118 kts | 33° |
| 2026-05-03 21:54 | 54.55625 | -5.94618 | 1385 ft | 106 kts | 33° |
| 2026-05-03 21:54 | 54.56181 | -5.93955 | 1232 ft | 90 kts | 33° |
| 2026-05-03 21:54 | 54.56656 | -5.93393 | 1106 ft | 78 kts | 34° |
| 2026-05-03 21:55 | 54.57093 | -5.92871 | 1012 ft | 77 kts | 34° |
| 2026-05-03 21:55 | 54.57540 | -5.92336 | 917 ft | 78 kts | 33° |
| 2026-05-03 21:55 | 54.57996 | -5.91802 | 818 ft | 81 kts | 34° |
| 2026-05-03 21:55 | 54.58465 | -5.91241 | 712 ft | 83 kts | 33° |
| 2026-05-03 21:56 | 54.58947 | -5.90663 | 610 ft | 81 kts | 34° |
| 2026-05-03 21:56 | 54.59397 | -5.90123 | 499 ft | 77 kts | 32° |
| 2026-05-03 21:56 | 54.59823 | -5.89606 | 377 ft | 73 kts | 35° |
| 2026-05-03 21:56 | 54.60242 | -5.89129 | 253 ft | 73 kts | 27° |
| 2026-05-03 21:57 | 54.60683 | -5.88588 | 213 ft | 80 kts | 33° |
| 2026-05-03 21:57 | 54.61106 | -5.88087 | 81 ft | 71 kts | 34° |
| 2026-05-03 21:57 | 54.61478 | -5.87650 | 11 ft | 56 kts | 34° |
| 2026-05-03 21:57 | 54.61736 | -5.87341 | 11 ft | 30 kts | 40° |
| 2026-05-03 21:58 | 54.61818 | -5.87158 | 11 ft | 16 kts | 117° |
| 2026-05-03 21:58 | 54.61763 | -5.87010 | 10 ft | 0 kts | 123° |
| 2026-05-03 21:58 | 54.61738 | -5.87001 | 10 ft | 5 kts | 185° |
| 2026-05-03 21:58 | 54.61700 | -5.87026 | 10 ft | 6 kts | 216° |
| 2026-05-03 21:59 | 54.61661 | -5.87071 | 10 ft | 7 kts | 209° |
| 2026-05-03 21:59 | 54.61615 | -5.87115 | 10 ft | 7 kts | 213° |
| 2026-05-03 21:59 | 54.61570 | -5.87171 | 10 ft | 8 kts | 218° |
| 2026-05-03 21:59 | 54.61521 | -5.87236 | 10 ft | 9 kts | 218° |
| 2026-05-03 22:00 | 54.61470 | -5.87307 | 10 ft | 9 kts | 219° |
| 2026-05-03 22:00 | 54.61415 | -5.87378 | 10 ft | 10 kts | 229° |
| 2026-05-03 22:00 | 54.61364 | -5.87467 | 10 ft | 10 kts | 215° |
| 2026-05-03 22:00 | 54.61302 | -5.87544 | 10 ft | 11 kts | 217° |
| 2026-05-03 22:01 | 54.61234 | -5.87621 | 9 ft | 11 kts | 203° |
| 2026-05-03 22:01 | 54.61155 | -5.87628 | 9 ft | 9 kts | 161° |
| 2026-05-03 22:01 | 54.61132 | -5.87624 | 9 ft | 1 kts | 308° |
| 2026-05-03 22:01 | 54.61133 | -5.87624 | 9 ft | 0 kts | 310° |